Time;durP1;ratioP1;P1;durP2;ratioP2;P2;SDS_P1;SDS_P2;PMS_P1;PMS_P2;Temp;Humidity;BMP_temperature;BMP_pressure;BME280_temperature;BME280_humidity;BME280_pressure;Samples;Min_cycle;Max_cycle;Signal;HPM_P1;HPM_P2
2021/05/19 00:02:07;;;;;;;10.78;9.78;;;;;;;21.06;51.64;98251.53;2162011;82;20943;-80
2021/05/19 00:05:08;;;;;;;10.75;8.20;;;;;;;20.89;49.82;98251.73;2162074;82;21347;-81
2021/05/19 00:08:09;;;;;;;8.60;7.37;;;;;;;20.84;51.08;98256.35;2162147;82;20956;-81
2021/05/19 00:11:09;;;;;;;8.50;7.60;;;;;;;20.84;50.59;98247.53;2161878;82;21307;-79
2021/05/19 00:14:11;;;;;;;12.43;7.87;;;;;;;20.63;50.67;98245.21;2162039;82;20928;-82
2021/05/19 00:17:12;;;;;;;8.98;7.58;;;;;;;20.82;50.61;98248.92;2161741;82;21015;-82
2021/05/19 00:20:13;;;;;;;10.00;7.47;;;;;;;21.05;50.60;98241.37;2161761;82;20974;-82
2021/05/19 00:23:14;;;;;;;7.83;7.10;;;;;;;20.70;50.08;98246.70;2161948;82;20915;-81
2021/05/19 00:26:15;;;;;;;9.18;7.60;;;;;;;20.83;51.05;98251.97;2177408;81;21017;-83
2021/05/19 00:29:16;;;;;;;9.95;8.13;;;;;;;20.96;49.51;98251.89;2179429;82;20942;-81
2021/05/19 00:32:17;;;;;;;10.72;7.20;;;;;;;21.04;50.17;98248.08;2179372;82;21018;-83
2021/05/19 00:35:18;;;;;;;7.65;6.80;;;;;;;21.14;49.78;98251.62;2179150;82;21263;-79
2021/05/19 00:38:21;;;;;;;9.60;7.35;;;;;;;20.54;46.83;98254.38;2151035;82;20997;-79
2021/05/19 00:41:22;;;;;;;12.78;7.90;;;;;;;17.80;48.42;98255.95;2178895;82;20985;-78
2021/05/19 00:44:23;;;;;;;9.55;7.80;;;;;;;15.80;52.15;98260.77;2179073;82;20932;-79
2021/05/19 00:47:24;;;;;;;10.72;7.30;;;;;;;14.12;55.07;98271.47;2178967;82;20950;-80
2021/05/19 00:50:25;;;;;;;8.38;7.47;;;;;;;13.13;57.88;98268.42;2179108;82;21041;-79
2021/05/19 00:53:26;;;;;;;9.85;8.45;;;;;;;12.32;60.28;98264.94;2178988;82;21001;-79
2021/05/19 00:56:27;;;;;;;8.65;7.75;;;;;;;11.70;62.51;98272.92;2178922;82;21085;-78
2021/05/19 00:59:28;;;;;;;12.20;8.18;;;;;;;11.20;64.07;98279.45;2178887;82;20942;-79
2021/05/19 01:02:29;;;;;;;9.70;8.68;;;;;;;10.90;66.83;98282.48;2178954;82;20931;-77
2021/05/19 01:11:54;;;;;;;11.53;8.60;;;;;;;10.21;69.15;98289.20;2178917;82;21322;-78
2021/05/19 01:14:55;;;;;;;12.13;8.33;;;;;;;10.02;70.66;98287.34;2178921;82;20954;-78
2021/05/19 01:17:56;;;;;;;12.55;8.78;;;;;;;9.93;71.15;98289.89;2178976;82;20961;-80
2021/05/19 01:20:58;;;;;;;21.02;8.80;;;;;;;9.87;72.11;98295.95;2179063;82;21076;-80
2021/05/19 01:23:59;;;;;;;11.23;9.03;;;;;;;9.80;72.04;98291.13;2179101;81;20950;-78
2021/05/19 01:27:00;;;;;;;11.07;9.97;;;;;;;9.76;73.08;98293.27;2178871;82;21089;-80
2021/05/19 01:30:01;;;;;;;13.20;11.83;;;;;;;9.72;73.88;98290.64;2179084;82;20927;-80
2021/05/19 01:33:02;;;;;;;13.30;10.50;;;;;;;10.18;82.00;98289.16;2179088;82;20934;-81
2021/05/19 01:36:03;;;;;;;10.70;9.60;;;;;;;13.32;79.71;98287.08;2179286;82;20911;-80
2021/05/19 01:39:05;;;;;;;12.15;8.18;;;;;;;15.44;71.68;98278.44;2179290;82;20957;-80
2021/05/19 01:42:06;;;;;;;11.78;7.90;;;;;;;16.77;67.26;98275.09;2179488;82;20927;-82
2021/05/19 01:45:07;;;;;;;11.90;8.85;;;;;;;17.87;65.48;98283.05;2179238;82;20965;-82
2021/05/19 01:48:08;;;;;;;10.78;7.47;;;;;;;18.69;60.25;98278.61;2179620;82;21307;-82
2021/05/19 01:51:09;;;;;;;16.07;7.72;;;;;;;19.04;57.92;98270.47;2179263;82;21029;-80
2021/05/19 01:54:10;;;;;;;10.70;8.20;;;;;;;19.13;56.99;98278.61;2179415;82;21276;-81
2021/05/19 01:57:11;;;;;;;9.60;7.55;;;;;;;18.19;56.83;98275.58;2179678;82;21073;-82
2021/05/19 02:00:12;;;;;;;7.87;7.08;;;;;;;18.50;55.71;98279.57;2179815;82;21361;-81
2021/05/19 02:03:13;;;;;;;8.70;7.37;;;;;;;19.08;54.32;98274.78;2179452;82;20946;-81
2021/05/19 02:06:14;;;;;;;8.78;7.33;;;;;;;19.40;53.32;98274.20;2179418;82;20933;-82
2021/05/19 02:09:15;;;;;;;9.38;7.17;;;;;;;19.63;53.37;98273.02;2179091;82;20958;-79
2021/05/19 02:12:16;;;;;;;8.95;7.45;;;;;;;18.98;49.91;98277.27;2179055;82;20937;-80
2021/05/19 02:15:17;;;;;;;9.65;7.83;;;;;;;16.38;52.80;98282.02;2178845;82;21378;-78
2021/05/19 02:18:18;;;;;;;8.85;7.97;;;;;;;14.50;56.42;98289.86;2178769;82;20965;-78
2021/05/19 02:21:19;;;;;;;12.33;8.60;;;;;;;13.26;59.64;98287.57;2178806;82;20990;-79
2021/05/19 02:24:19;;;;;;;11.12;8.45;;;;;;;12.36;61.99;98287.61;2177597;81;20910;-79
2021/05/19 02:27:21;;;;;;;13.20;9.53;;;;;;;11.74;64.94;98291.21;2161502;82;21006;-77
2021/05/19 02:30:22;;;;;;;12.73;10.68;;;;;;;11.30;66.69;98292.55;2161770;82;21046;-78
2021/05/19 02:33:23;;;;;;;10.95;9.85;;;;;;;10.93;67.51;98295.97;2161429;82;21455;-77
2021/05/19 02:36:24;;;;;;;12.18;10.10;;;;;;;10.67;69.01;98303.31;2161664;82;20914;-78
2021/05/19 02:39:25;;;;;;;15.20;11.63;;;;;;;10.48;69.80;98303.69;2161394;82;20986;-78
2021/05/19 02:42:26;;;;;;;14.93;10.32;;;;;;;10.35;70.58;98307.52;2161302;82;21344;-78
2021/05/19 02:45:27;;;;;;;13.33;11.13;;;;;;;10.24;70.71;98303.56;2161371;82;21002;-78
2021/05/19 02:48:28;;;;;;;13.88;12.40;;;;;;;10.14;71.51;98307.83;2161431;82;21302;-78
2021/05/19 02:51:29;;;;;;;15.48;12.82;;;;;;;10.06;72.17;98309.95;2161517;82;21026;-78
2021/05/19 02:54:30;;;;;;;14.30;12.23;;;;;;;9.97;72.56;98307.30;2161529;82;20958;-78
2021/05/19 02:57:31;;;;;;;15.60;13.50;;;;;;;9.87;74.04;98312.89;2161476;82;21062;-79
2021/05/19 03:00:32;;;;;;;15.40;12.50;;;;;;;9.76;73.76;98316.73;2161602;82;20931;-79
2021/05/19 03:03:34;;;;;;;21.83;13.73;;;;;;;9.76;74.18;98317.16;2161464;82;20946;-79
2021/05/19 03:06:35;;;;;;;16.43;14.43;;;;;;;9.78;75.00;98324.13;2161479;82;20963;-78
2021/05/19 03:09:36;;;;;;;18.50;15.30;;;;;;;9.75;75.06;98322.81;2161705;82;20936;-81
2021/05/19 03:12:37;;;;;;;15.87;14.03;;;;;;;10.76;82.37;98335.09;2161907;82;21002;-82
2021/05/19 03:15:38;;;;;;;20.88;15.28;;;;;;;13.66;75.75;98317.82;2161793;82;20962;-81
2021/05/19 03:18:39;;;;;;;24.47;15.10;;;;;;;15.50;71.67;98319.11;2161792;82;20947;-81
2021/05/19 03:21:40;;;;;;;30.68;17.12;;;;;;;15.94;65.60;98313.14;2162041;82;20923;-82
2021/05/19 03:24:42;;;;;;;21.70;15.83;;;;;;;17.55;62.72;98318.15;2163373;82;21312;-83
2021/05/19 03:27:43;;;;;;;18.62;15.48;;;;;;;17.55;62.72;98318.15;2179338;81;21053;-84
2021/05/19 03:30:44;;;;;;;20.85;16.57;;;;;;;18.40;59.42;98308.03;2179329;82;20891;-81
2021/05/19 03:33:45;;;;;;;18.67;16.60;;;;;;;16.68;55.49;98311.33;2179288;81;20910;-83
2021/05/19 03:36:46;;;;;;;22.35;17.80;;;;;;;14.13;60.80;98326.14;2179361;82;20949;-82
2021/05/19 03:39:47;;;;;;;19.00;17.20;;;;;;;12.92;64.33;98330.09;2179431;82;21018;-81
2021/05/19 03:42:48;;;;;;;22.73;18.50;;;;;;;12.31;67.17;98332.55;2179347;82;20942;-82
2021/05/19 03:45:49;;;;;;;24.57;19.35;;;;;;;12.38;67.94;98332.09;2179773;81;20943;-83
2021/05/19 03:48:53;;;;;;;24.63;19.30;;;;;;;12.46;68.81;98332.94;2179740;82;21294;-82
2021/05/19 03:51:52;;;;;;;21.33;17.73;;;;;;;12.32;68.84;98341.27;2179195;82;21024;-80
2021/05/19 03:54:53;;;;;;;17.40;15.72;;;;;;;11.94;68.67;98344.82;2178952;82;20943;-80
2021/05/19 03:57:54;;;;;;;19.50;17.50;;;;;;;11.33;70.74;98348.73;2179222;81;21041;-79
2021/05/19 04:00:55;;;;;;;18.75;16.75;;;;;;;10.87;71.42;98351.66;2179395;82;20906;-80
2021/05/19 04:03:56;;;;;;;20.40;18.32;;;;;;;10.56;72.32;98353.30;2179541;81;20907;-80
2021/05/19 04:06:57;;;;;;;19.52;17.52;;;;;;;10.40;72.71;98352.77;2179675;81;20954;-79
2021/05/19 04:09:58;;;;;;;19.00;16.50;;;;;;;10.29;74.75;98347.92;2179438;82;20934;-81
2021/05/19 04:13:01;;;;;;;18.55;16.80;;;;;;;10.16;74.29;98352.17;2179863;81;20926;-80
2021/05/19 04:16:02;;;;;;;21.17;18.80;;;;;;;10.09;74.96;98351.27;2179158;81;20966;-80
2021/05/19 04:19:04;;;;;;;21.90;18.37;;;;;;;10.02;76.04;98360.34;2179398;81;20966;-80
2021/05/19 04:22:05;;;;;;;21.40;19.20;;;;;;;9.99;75.77;98365.11;2179626;82;21009;-81
2021/05/19 04:25:08;;;;;;;21.87;17.35;;;;;;;10.03;76.23;98363.39;2179485;81;20987;-80
2021/05/19 04:28:10;;;;;;;19.90;17.90;;;;;;;10.07;76.12;98361.25;2179417;82;21358;-80
2021/05/19 04:31:10;;;;;;;21.20;18.90;;;;;;;10.11;76.78;98369.53;2179274;81;21013;-79
2021/05/19 04:34:12;;;;;;;20.27;18.20;;;;;;;10.08;77.04;98367.77;2179364;81;20935;-80
2021/05/19 04:37:13;;;;;;;22.70;20.00;;;;;;;10.11;77.14;98370.40;2179505;82;20934;-81
2021/05/19 04:40:14;;;;;;;19.90;17.97;;;;;;;11.23;80.67;98366.98;2179929;82;21033;-83
2021/05/19 04:43:15;;;;;;;18.82;17.00;;;;;;;13.83;75.23;98361.39;2180219;81;20930;-82
2021/05/19 04:46:16;;;;;;;15.80;14.23;;;;;;;14.90;73.48;98363.81;2180763;81;20990;-82
2021/05/19 04:49:17;;;;;;;16.10;14.20;;;;;;;16.04;68.34;98365.19;2180362;81;20965;-83
2021/05/19 04:52:18;;;;;;;17.32;13.95;;;;;;;17.28;63.34;98367.58;2180438;81;20993;-82
2021/05/19 04:55:18;;;;;;;17.52;14.55;;;;;;;18.03;59.74;98356.13;2180483;82;20922;-82
2021/05/19 04:58:24;;;;;;;14.85;13.45;;;;;;;17.54;57.02;98363.91;2180469;81;21021;-80
2021/05/19 05:01:22;;;;;;;22.48;14.95;;;;;;;16.54;58.33;98358.55;2180112;82;21409;-82
2021/05/19 05:04:23;;;;;;;14.43;12.93;;;;;;;15.47;61.54;98370.44;2180452;81;21272;-80
2021/05/19 05:07:26;;;;;;;18.60;15.50;;;;;;;14.32;61.72;98379.74;2180170;81;20939;-81
2021/05/19 05:10:27;;;;;;;16.00;14.38;;;;;;;13.56;65.68;98380.41;2180161;81;20981;-81
2021/05/19 05:13:27;;;;;;;20.23;17.30;;;;;;;13.27;65.35;98377.98;2180675;82;21267;-82
2021/05/19 05:16:29;;;;;;;18.77;16.62;;;;;;;12.98;68.43;98383.33;2180720;81;20994;-83
2021/05/19 05:19:29;;;;;;;158.75;60.92;;;;;;;13.01;67.02;98375.48;2180545;81;21244;-81
2021/05/19 05:22:30;;;;;;;48.73;26.95;;;;;;;13.25;68.56;98378.88;2180247;82;20946;-81
2021/05/19 05:25:32;;;;;;;17.92;16.05;;;;;;;13.06;68.11;98379.39;2177164;81;20994;-81
2021/05/19 05:28:33;;;;;;;35.63;20.88;;;;;;;12.91;68.71;98381.61;2162963;82;21158;-80
2021/05/19 05:31:34;;;;;;;20.70;17.35;;;;;;;13.15;70.16;98383.70;2163074;82;20938;-81
2021/05/19 05:34:35;;;;;;;36.75;24.20;;;;;;;13.27;68.87;98384.98;2163050;82;21054;-81
2021/05/19 05:37:36;;;;;;;20.77;17.45;;;;;;;13.30;68.49;98385.83;2163135;82;21342;-81
2021/05/19 05:40:37;;;;;;;20.55;17.25;;;;;;;13.38;67.73;98389.71;2163157;82;20969;-82
2021/05/19 05:43:39;;;;;;;17.62;15.43;;;;;;;13.32;69.83;98393.24;2163066;82;20998;-81
2021/05/19 05:46:40;;;;;;;82.67;70.55;;;;;;;14.27;67.80;98395.12;2162957;82;20926;-81
2021/05/19 05:49:41;;;;;;;66.05;53.87;;;;;;;14.26;68.55;98394.69;2162781;82;21272;-81
2021/05/19 05:52:42;;;;;;;26.35;22.90;;;;;;;14.91;67.08;98396.64;2162900;82;21052;-81
2021/05/19 05:55:43;;;;;;;54.45;44.88;;;;;;;14.78;66.14;98396.80;2163070;82;20982;-80
2021/05/19 05:58:44;;;;;;;22.20;18.55;;;;;;;14.44;66.14;98399.78;2162727;82;20986;-80
2021/05/19 06:01:45;;;;;;;21.95;17.92;;;;;;;13.81;66.52;98407.31;2162369;82;20939;-80
2021/05/19 06:04:46;;;;;;;20.57;18.57;;;;;;;13.95;66.14;98407.23;2162809;82;21011;-82
2021/05/19 06:07:47;;;;;;;21.35;19.12;;;;;;;13.08;68.42;98408.63;2163116;82;21306;-81
2021/05/19 06:10:48;;;;;;;22.90;18.30;;;;;;;12.79;70.27;98409.61;2163033;82;20994;-81
2021/05/19 06:13:49;;;;;;;23.55;19.62;;;;;;;13.05;69.71;98403.84;2163006;82;20978;-82
2021/05/19 06:16:50;;;;;;;23.42;19.07;;;;;;;13.61;69.04;98403.53;2162951;82;20930;-80
2021/05/19 06:19:52;;;;;;;21.90;18.20;;;;;;;13.04;68.78;98409.97;2162628;82;20931;-81
2021/05/19 06:22:53;;;;;;;30.05;20.70;;;;;;;12.48;69.98;98420.19;2162807;82;20994;-80
2021/05/19 06:25:54;;;;;;;25.75;19.62;;;;;;;12.00;70.89;98419.36;2162477;81;20995;-80
2021/05/19 06:28:55;;;;;;;25.65;22.35;;;;;;;11.65;72.31;98417.14;2162721;82;21117;-81
2021/05/19 06:31:56;;;;;;;64.50;32.53;;;;;;;12.30;73.39;98417.61;2162870;82;20943;-80
2021/05/19 06:34:57;;;;;;;28.85;22.62;;;;;;;12.81;75.04;98417.02;2162713;82;21002;-79
2021/05/19 06:37:59;;;;;;;27.17;23.22;;;;;;;12.83;71.77;98416.58;2163200;82;21414;-81
2021/05/19 06:41:00;;;;;;;26.48;22.80;;;;;;;12.24;72.00;98419.80;2163422;82;20994;-81
2021/05/19 06:44:01;;;;;;;31.90;24.90;;;;;;;11.93;73.61;98418.92;2162863;82;20951;-81
2021/05/19 06:47:02;;;;;;;33.65;29.50;;;;;;;12.10;73.56;98417.17;2163029;82;21011;-79
2021/05/19 06:50:03;;;;;;;56.58;44.25;;;;;;;11.88;73.56;98423.72;2163165;82;20999;-80
2021/05/19 06:53:04;;;;;;;38.48;29.12;;;;;;;12.08;76.49;98423.28;2163117;82;20934;-78
2021/05/19 06:56:08;;;;;;;29.37;25.12;;;;;;;12.65;74.42;98422.31;2162992;82;20939;-80
2021/05/19 06:59:08;;;;;;;26.55;23.67;;;;;;;12.56;72.26;98421.03;2162428;82;21026;-82
2021/05/19 07:02:09;;;;;;;31.93;23.95;;;;;;;12.51;73.53;98418.87;2162515;82;20942;-81
2021/05/19 07:05:11;;;;;;;26.77;22.48;;;;;;;13.10;73.06;98423.04;2162896;82;20967;-80
2021/05/19 07:08:13;;;;;;;29.50;20.92;;;;;;;13.30;72.60;98426.45;2162670;82;20954;-80
2021/05/19 07:11:14;;;;;;;35.00;26.87;;;;;;;13.54;71.29;98425.88;2162488;82;21070;-82
2021/05/19 07:14:16;;;;;;;41.28;29.72;;;;;;;13.12;70.72;98433.08;2162866;82;20946;-81
2021/05/19 07:17:18;;;;;;;23.30;20.90;;;;;;;12.86;71.92;98430.53;2163059;82;20994;-80
2021/05/19 07:20:19;;;;;;;23.52;20.40;;;;;;;12.68;71.08;98435.40;2162664;82;20962;-80
2021/05/19 07:23:21;;;;;;;26.90;21.65;;;;;;;12.09;72.77;98433.73;2162788;82;20986;-80
2021/05/19 07:26:24;;;;;;;31.33;27.52;;;;;;;11.76;74.69;98441.13;2162261;82;21046;-80
2021/05/19 07:29:24;;;;;;;30.08;21.30;;;;;;;12.02;75.45;98433.74;2161853;81;21057;-79
2021/05/19 07:32:25;;;;;;;24.50;21.12;;;;;;;12.16;74.03;98438.56;2162606;82;21299;-80
2021/05/19 07:35:34;;;;;;;35.43;30.10;;;;;;;12.18;75.34;98443.80;2162693;82;20963;-81
2021/05/19 07:38:38;;;;;;;27.32;21.60;;;;;;;12.17;74.67;98438.13;2162504;82;21050;-81
2021/05/19 07:41:39;;;;;;;23.22;20.45;;;;;;;12.61;74.29;98441.53;2162714;82;20927;-80
2021/05/19 07:44:42;;;;;;;27.13;21.75;;;;;;;12.55;73.93;98446.78;2162276;82;20963;-80
2021/05/19 07:47:43;;;;;;;24.70;21.77;;;;;;;12.13;74.11;98443.77;2162158;82;21010;-82
2021/05/19 07:50:44;;;;;;;24.23;21.07;;;;;;;11.90;75.91;98450.75;2162028;82;20981;-79
2021/05/19 07:53:46;;;;;;;23.95;19.23;;;;;;;11.60;76.49;98455.05;2162958;82;20903;-79
2021/05/19 07:56:57;;;;;;;23.27;20.57;;;;;;;11.58;76.43;98452.00;2162537;82;20955;-79
2021/05/19 08:00:16;;;;;;;25.50;22.70;;;;;;;11.85;77.27;98458.59;2161258;82;20995;-80
2021/05/19 08:02:54;;;;;;;22.37;19.02;;;;;;;11.99;76.38;98455.98;2159292;82;20907;-78
2021/05/19 08:05:55;;;;;;;23.40;19.62;;;;;;;12.47;75.70;98455.09;2161921;82;20966;-79
2021/05/19 08:08:59;;;;;;;21.25;17.48;;;;;;;12.63;75.17;98452.88;2162144;82;20979;-80
2021/05/19 08:12:00;;;;;;;18.73;16.82;;;;;;;12.82;74.78;98449.76;2162275;82;21240;-79
2021/05/19 08:15:01;;;;;;;17.85;16.07;;;;;;;12.94;74.37;98456.70;2161930;82;20989;-79
2021/05/19 08:18:02;;;;;;;18.25;16.20;;;;;;;13.08;74.21;98457.55;2162305;82;21151;-79
2021/05/19 08:21:05;;;;;;;24.87;16.55;;;;;;;13.37;73.61;98455.69;2162459;82;21014;-79
2021/05/19 08:24:06;;;;;;;22.25;15.48;;;;;;;13.42;73.07;98457.41;2162647;82;20923;-80
2021/05/19 08:27:07;;;;;;;19.45;17.32;;;;;;;13.42;72.67;98451.73;2162366;81;21030;-80
2021/05/19 08:30:12;;;;;;;25.30;15.72;;;;;;;13.43;73.48;98453.91;2161870;82;21046;-78
2021/05/19 08:33:10;;;;;;;17.60;15.23;;;;;;;13.44;72.32;98449.97;2161977;82;21022;-79
2021/05/19 08:36:12;;;;;;;16.82;14.28;;;;;;;13.79;72.05;98460.67;2162045;82;21428;-79
2021/05/19 08:39:13;;;;;;;13.45;12.05;;;;;;;14.12;70.83;98456.95;2162264;82;20959;-78
2021/05/19 08:42:14;;;;;;;12.93;11.83;;;;;;;14.23;68.34;98459.03;2162389;82;20966;-80
2021/05/19 08:45:15;;;;;;;11.00;9.75;;;;;;;13.91;69.49;98454.92;2162736;82;20935;-80
2021/05/19 08:48:16;;;;;;;8.48;7.67;;;;;;;13.63;70.29;98455.97;2163346;82;21031;-80
2021/05/19 08:51:17;;;;;;;9.38;8.58;;;;;;;13.48;69.66;98466.55;2163125;82;20935;-84
2021/05/19 08:54:20;;;;;;;7.65;6.70;;;;;;;13.47;70.63;98462.19;2162579;82;21379;-79
2021/05/19 08:57:21;;;;;;;8.33;7.58;;;;;;;13.33;69.78;98468.37;2162023;82;21033;-80
2021/05/19 09:00:23;;;;;;;7.85;7.25;;;;;;;13.08;71.08;98479.38;2162026;82;21015;-79
2021/05/19 09:03:24;;;;;;;9.38;8.58;;;;;;;13.02;72.01;98476.79;2162725;82;20951;-81
2021/05/19 09:06:31;;;;;;;9.28;8.38;;;;;;;13.01;73.19;98480.28;2162716;82;20946;-79
2021/05/19 09:09:32;;;;;;;7.55;6.90;;;;;;;13.08;74.05;98476.77;2162393;82;21028;-79
2021/05/19 09:12:33;;;;;;;9.83;6.78;;;;;;;13.10;73.73;98471.52;2162484;82;21066;-78
2021/05/19 09:15:34;;;;;;;8.75;7.95;;;;;;;13.05;73.26;98461.49;2162551;82;21318;-79
2021/05/19 09:18:34;;;;;;;8.85;8.05;;;;;;;13.13;73.55;98477.19;2162654;82;21411;-78
2021/05/19 09:21:41;;;;;;;8.33;7.62;;;;;;;13.32;74.08;98478.44;2162383;82;21002;-79
2021/05/19 09:24:42;;;;;;;9.93;9.08;;;;;;;13.42;73.49;98479.70;2162102;82;21014;-79
2021/05/19 09:27:43;;;;;;;9.88;9.00;;;;;;;13.39;73.51;98483.20;2171484;81;21061;-78
2021/05/19 09:30:44;;;;;;;9.83;8.93;;;;;;;13.48;72.76;98471.80;2179136;82;20946;-78
2021/05/19 09:33:45;;;;;;;9.48;8.68;;;;;;;13.77;73.02;98473.80;2179577;82;20939;-78
2021/05/19 09:36:46;;;;;;;10.08;8.38;;;;;;;13.94;72.24;98474.58;2179225;82;21029;-78
2021/05/19 09:39:47;;;;;;;8.75;7.87;;;;;;;14.24;71.22;98469.97;2179540;82;20930;-78
2021/05/19 09:42:49;;;;;;;7.47;6.87;;;;;;;14.35;69.64;98473.36;2179635;82;21350;-78
2021/05/19 09:45:50;;;;;;;7.20;6.60;;;;;;;14.19;69.09;98479.63;2179388;82;21009;-77
2021/05/19 09:48:51;;;;;;;7.10;6.50;;;;;;;14.12;68.24;98474.00;2179832;82;20894;-78
2021/05/19 09:51:52;;;;;;;8.08;7.08;;;;;;;14.20;68.83;98476.13;2179020;82;20899;-78
2021/05/19 09:54:53;;;;;;;7.67;6.40;;;;;;;14.35;70.04;98478.61;2178985;82;20925;-78
2021/05/19 09:57:54;;;;;;;8.35;6.40;;;;;;;14.36;67.29;98473.79;2178766;82;21017;-77
2021/05/19 10:00:55;;;;;;;7.33;6.62;;;;;;;14.27;68.74;98479.99;2179578;82;20951;-79
2021/05/19 10:03:56;;;;;;;6.75;5.50;;;;;;;14.06;67.51;98488.05;2179535;82;20951;-78
2021/05/19 10:06:58;;;;;;;7.12;6.42;;;;;;;14.02;66.38;98483.70;2179880;82;21005;-79
2021/05/19 10:09:59;;;;;;;8.03;6.87;;;;;;;14.00;67.58;98483.72;2179845;82;21017;-78
2021/05/19 10:13:00;;;;;;;8.48;6.70;;;;;;;14.06;67.79;98479.30;2179490;82;21009;-78
2021/05/19 10:16:02;;;;;;;8.63;7.25;;;;;;;14.19;67.46;98480.95;2179574;82;21009;-79
2021/05/19 10:19:03;;;;;;;18.55;8.55;;;;;;;14.36;66.18;98477.73;2179437;82;21029;-80
2021/05/19 10:22:04;;;;;;;9.35;7.55;;;;;;;14.48;66.01;98481.59;2179530;82;20946;-79
2021/05/19 10:25:07;;;;;;;8.95;7.45;;;;;;;14.59;64.74;98479.72;2180079;82;21017;-80
2021/05/19 10:28:08;;;;;;;7.47;6.67;;;;;;;14.74;65.89;98471.26;2179811;82;21101;-78
2021/05/19 10:31:09;;;;;;;8.00;6.90;;;;;;;14.86;64.60;98474.66;2180069;82;20938;-79
2021/05/19 10:34:10;;;;;;;8.45;6.17;;;;;;;14.96;63.47;98470.16;2179791;82;20923;-79
2021/05/19 10:37:11;;;;;;;9.58;6.83;;;;;;;15.28;63.95;98460.12;2179356;82;20965;-78
2021/05/19 10:40:18;;;;;;;15.32;7.03;;;;;;;15.46;61.41;98466.02;2180448;82;20981;-81
2021/05/19 10:43:19;;;;;;;7.12;6.42;;;;;;;15.52;61.23;98469.88;2179975;82;20918;-78
2021/05/19 10:46:20;;;;;;;10.08;6.58;;;;;;;15.54;61.78;98462.84;2179485;82;20966;-78
2021/05/19 10:49:21;;;;;;;9.10;6.83;;;;;;;15.66;61.51;98460.09;2179523;82;21018;-79
2021/05/19 10:58:54;;;;;;;7.15;6.45;;;;;;;15.75;59.78;98465.23;2180177;82;21445;-79
2021/05/19 11:01:55;;;;;;;7.20;6.47;;;;;;;15.73;60.99;98463.51;2179494;82;21329;-78
2021/05/19 11:04:56;;;;;;;7.03;5.33;;;;;;;15.96;60.16;98461.39;2179635;82;20965;-79
2021/05/19 11:07:57;;;;;;;10.35;4.92;;;;;;;16.21;58.84;98452.65;2179877;82;21290;-80
2021/05/19 11:11:02;;;;;;;6.67;5.30;;;;;;;16.69;56.16;98454.05;2179522;82;21010;-79
2021/05/19 11:14:05;;;;;;;8.08;5.33;;;;;;;16.70;56.62;98456.66;2178998;82;20961;-78
2021/05/19 11:17:21;;;;;;;7.87;5.00;;;;;;;16.72;56.77;98465.85;2178559;81;21432;-78
2021/05/19 11:20:18;;;;;;;6.62;4.65;;;;;;;17.24;55.08;98452.95;2178434;82;21072;-79
2021/05/19 11:23:19;;;;;;;7.08;4.78;;;;;;;16.94;53.56;98453.99;2179083;82;20946;-78
2021/05/19 11:26:20;;;;;;;7.05;4.58;;;;;;;17.07;53.53;98452.84;2179310;82;21068;-78
2021/05/19 11:29:21;;;;;;;7.62;5.00;;;;;;;17.39;52.76;98448.69;2163477;81;21429;-78
2021/05/19 11:32:22;;;;;;;5.12;4.10;;;;;;;17.38;52.36;98445.64;2161875;82;21042;-78
2021/05/19 11:35:23;;;;;;;9.63;4.28;;;;;;;17.32;53.28;98444.42;2161733;82;21067;-80
2021/05/19 11:38:24;;;;;;;4.83;4.15;;;;;;;17.00;52.78;98437.19;2161859;82;21394;-79
2021/05/19 11:41:25;;;;;;;6.53;4.35;;;;;;;17.17;54.51;98438.57;2160894;82;20963;-78
2021/05/19 11:44:26;;;;;;;4.25;3.50;;;;;;;17.30;51.95;98434.35;2161286;82;21023;-79
2021/05/19 11:47:27;;;;;;;8.65;3.72;;;;;;;17.69;52.99;98431.34;2161774;82;21002;-79
2021/05/19 11:50:28;;;;;;;6.58;3.87;;;;;;;18.30;51.28;98432.05;2161381;82;21061;-79
2021/05/19 11:53:29;;;;;;;4.60;3.60;;;;;;;18.36;49.54;98421.33;2161736;82;20970;-79
2021/05/19 11:56:30;;;;;;;11.68;3.30;;;;;;;17.98;48.94;98431.96;2161476;82;21050;-79
2021/05/19 11:59:35;;;;;;;2.90;2.60;;;;;;;17.31;50.50;98421.58;2162494;82;21058;-79
2021/05/19 12:02:34;;;;;;;3.17;2.52;;;;;;;17.08;49.43;98424.26;2161574;82;20982;-79
2021/05/19 12:05:35;;;;;;;5.22;3.55;;;;;;;16.90;51.03;98420.68;2162246;82;20904;-78
2021/05/19 12:08:39;;;;;;;7.28;3.17;;;;;;;16.67;50.62;98434.31;2162693;82;21038;-79
2021/05/19 12:11:40;;;;;;;4.12;3.37;;;;;;;16.31;51.06;98439.74;2162456;82;21091;-77
2021/05/19 12:14:41;;;;;;;3.77;3.00;;;;;;;16.11;51.80;98431.31;2161363;82;21381;-78
2021/05/19 12:17:42;;;;;;;3.20;2.85;;;;;;;15.91;51.85;98446.99;2161443;82;20958;-79
2021/05/19 12:20:43;;;;;;;4.92;2.72;;;;;;;15.80;51.50;98449.37;2161803;82;21037;-78
2021/05/19 12:23:44;;;;;;;4.22;2.72;;;;;;;15.77;52.67;98452.05;2161958;82;20951;-78
2021/05/19 12:26:45;;;;;;;5.42;2.95;;;;;;;15.71;51.83;98450.38;2162082;82;20946;-80
2021/05/19 12:29:48;;;;;;;4.55;2.67;;;;;;;15.73;52.91;98442.02;2162661;81;21389;-78
2021/05/19 12:32:53;;;;;;;6.12;3.02;;;;;;;15.87;52.03;98449.25;2162682;82;20935;-79
2021/05/19 12:35:54;;;;;;;;;;;;;;;16.33;50.33;98434.45;2164717;82;20966;-78
2021/05/19 12:38:57;;;;;;;2.90;2.60;;;;;;;16.75;48.38;98428.89;2161974;82;20203;-78
2021/05/19 12:41:58;;;;;;;3.62;3.17;;;;;;;17.10;49.53;98427.73;2162156;82;20951;-78
2021/05/19 12:44:59;;;;;;;2.70;2.25;;;;;;;17.28;47.24;98430.87;2162347;82;20967;-79
2021/05/19 12:48:00;;;;;;;3.85;2.42;;;;;;;17.61;47.29;98417.41;2162532;82;20935;-79
2021/05/19 12:51:02;;;;;;;2.40;2.20;;;;;;;17.69;46.58;98419.46;2162373;82;20974;-79
2021/05/19 12:54:03;;;;;;;3.70;2.30;;;;;;;17.71;45.45;98414.56;2161809;82;21014;-78
2021/05/19 12:57:04;;;;;;;2.40;2.20;;;;;;;17.82;46.16;98422.22;2161562;82;20990;-81
2021/05/19 13:00:05;;;;;;;2.80;2.60;;;;;;;17.87;44.03;98431.35;2162705;82;21046;-81
2021/05/19 13:03:06;;;;;;;2.87;2.08;;;;;;;17.80;44.34;98424.90;2162829;82;21026;-81
2021/05/19 13:06:06;;;;;;;2.55;2.12;;;;;;;17.71;44.24;98422.48;2163002;82;20966;-80
2021/05/19 13:09:08;;;;;;;3.08;2.70;;;;;;;17.63;44.38;98429.67;2162973;82;20935;-80
2021/05/19 13:12:17;;;;;;;2.45;2.25;;;;;;;17.99;44.53;98417.85;2162273;82;21369;-80
2021/05/19 13:15:12;;;;;;;2.85;2.30;;;;;;;18.18;44.42;98421.77;2161087;82;21007;-80
2021/05/19 13:18:16;;;;;;;2.50;2.30;;;;;;;18.06;45.11;98428.68;2162520;82;21326;-80
2021/05/19 13:21:20;;;;;;;3.40;3.10;;;;;;;17.87;45.07;98437.50;2162281;81;20919;-80
2021/05/19 13:24:18;;;;;;;2.62;2.30;;;;;;;17.70;46.35;98433.07;2162298;82;20966;-83
2021/05/19 13:27:19;;;;;;;2.22;1.92;;;;;;;17.78;45.54;98431.98;2163060;81;20955;-81
2021/05/19 13:30:22;;;;;;;4.20;2.37;;;;;;;18.21;44.84;98423.05;2179657;82;21009;-79
2021/05/19 13:33:33;;;;;;;2.67;1.92;;;;;;;18.57;42.51;98415.92;2179864;82;20949;-80
2021/05/19 13:39:30;;;;;;;3.08;2.22;;;;;;;18.36;42.72;98429.70;2153653;82;20938;-81
2021/05/19 13:42:32;;;;;;;4.65;2.10;;;;;;;17.87;43.16;98424.30;2180288;82;21022;-81
2021/05/19 13:45:32;;;;;;;3.98;2.00;;;;;;;17.60;43.78;98427.10;2180027;82;21294;-78
2021/05/19 13:48:33;;;;;;;2.62;2.02;;;;;;;17.39;44.45;98423.63;2179976;82;21302;-81
2021/05/19 13:51:34;;;;;;;3.37;1.98;;;;;;;17.18;45.66;98431.53;2180196;82;20939;-79
2021/05/19 13:54:40;;;;;;;3.62;2.30;;;;;;;17.02;46.56;98430.11;2179986;82;21002;-80
2021/05/19 13:57:39;;;;;;;3.17;2.05;;;;;;;17.40;45.53;98424.91;2179044;82;21049;-79
2021/05/19 14:00:40;;;;;;;4.30;2.12;;;;;;;17.85;44.58;98434.48;2152351;82;21348;-79
2021/05/19 14:03:41;;;;;;;2.35;1.80;;;;;;;18.04;42.33;98430.48;2179849;82;20935;-80
2021/05/19 14:06:42;;;;;;;4.37;1.70;;;;;;;18.04;41.01;98431.36;2180153;82;20926;-79
2021/05/19 14:09:43;;;;;;;3.20;1.65;;;;;;;17.71;41.22;98421.16;2179689;82;21309;-79
2021/05/19 14:12:48;;;;;;;3.47;2.00;;;;;;;17.80;42.21;98426.22;2179736;82;21029;-79
2021/05/19 14:16:07;;;;;;;1.82;1.72;;;;;;;17.97;41.91;98426.27;2179675;82;21017;-80
2021/05/19 14:28:33;;;;;;;2.85;1.95;;;;;;;18.00;40.96;98424.88;2173777;81;21019;-81
2021/05/19 14:31:34;;;;;;;2.87;1.80;;;;;;;18.07;40.31;98419.85;2162830;82;20947;-80